Fernwood, Washington
Current Conditions -  °F | °C
As of 9:35 PM on Saturday 20 Dec 2014 (Local Time) from KPWT Reporting Station
Broken Clouds Broken Clouds  
Wind Chill: 54°   Ceiling: 800
Heat Index: 54°   Visibility: 10mi
Dew Point: 54°   Wind: 21mph
Humidity: 100%   Direction: 190°S
Pressure: 29.47"   Gusts: 28mph
Location:  47.5378°N, 122.589°W
Report Text: KPWT 210535Z AUTO 19018G24KT 10SM BKN008 12/12 A2947 RMK AO1 P0003
Loading
Personal Weather Stations






























Interactive Weather Map New forecast layout! Learn more

10-Day Weather Forecast

Advertisements
Track Severe Weather on mobile